sensor_id;sensor_type;location;lat;lon;timestamp;P1;durP1;ratioP1;P2;durP2;ratioP2
71767;SDS011;59604;52.138;5.446;2022-09-09T00:04:03;2.85;;;1.00;;
71767;SDS011;59604;52.138;5.446;2022-09-09T00:06:32;2.65;;;0.82;;
71767;SDS011;59604;52.138;5.446;2022-09-09T00:09:18;2.55;;;0.85;;
71767;SDS011;59604;52.138;5.446;2022-09-09T00:12:05;2.97;;;1.00;;
71767;SDS011;59604;52.138;5.446;2022-09-09T00:14:51;3.63;;;1.10;;
71767;SDS011;59604;52.138;5.446;2022-09-09T00:20:29;4.05;;;1.20;;
71767;SDS011;59604;52.138;5.446;2022-09-09T00:28:39;5.28;;;1.40;;
71767;SDS011;59604;52.138;5.446;2022-09-09T00:33:49;6.05;;;1.80;;
71767;SDS011;59604;52.138;5.446;2022-09-09T00:36:21;4.32;;;1.40;;
71767;SDS011;59604;52.138;5.446;2022-09-09T00:38:52;4.40;;;1.70;;
71767;SDS011;59604;52.138;5.446;2022-09-09T00:41:37;4.85;;;1.52;;
71767;SDS011;59604;52.138;5.446;2022-09-09T00:47:34;5.72;;;2.10;;
71767;SDS011;59604;52.138;5.446;2022-09-09T00:52:32;6.47;;;2.13;;
71767;SDS011;59604;52.138;5.446;2022-09-09T00:57:34;4.88;;;2.30;;
71767;SDS011;59604;52.138;5.446;2022-09-09T01:05:39;7.07;;;2.63;;
71767;SDS011;59604;52.138;5.446;2022-09-09T01:11:31;6.38;;;2.60;;
71767;SDS011;59604;52.138;5.446;2022-09-09T01:14:05;5.88;;;2.38;;
71767;SDS011;59604;52.138;5.446;2022-09-09T01:16:40;5.32;;;2.15;;
71767;SDS011;59604;52.138;5.446;2022-09-09T01:19:07;6.25;;;2.42;;
71767;SDS011;59604;52.138;5.446;2022-09-09T01:21:56;6.57;;;2.20;;
71767;SDS011;59604;52.138;5.446;2022-09-09T01:24:42;6.10;;;2.45;;
71767;SDS011;59604;52.138;5.446;2022-09-09T01:27:39;6.40;;;2.55;;
71767;SDS011;59604;52.138;5.446;2022-09-09T01:30:09;6.55;;;2.63;;
71767;SDS011;59604;52.138;5.446;2022-09-09T01:32:44;7.15;;;2.78;;
71767;SDS011;59604;52.138;5.446;2022-09-09T01:35:24;6.32;;;2.75;;
71767;SDS011;59604;52.138;5.446;2022-09-09T01:37:58;7.10;;;2.83;;
71767;SDS011;59604;52.138;5.446;2022-09-09T01:40:25;6.65;;;2.67;;
71767;SDS011;59604;52.138;5.446;2022-09-09T01:42:52;10.15;;;3.33;;
71767;SDS011;59604;52.138;5.446;2022-09-09T01:45:20;8.93;;;3.00;;
71767;SDS011;59604;52.138;5.446;2022-09-09T01:47:48;7.32;;;2.90;;
71767;SDS011;59604;52.138;5.446;2022-09-09T01:50:15;6.45;;;2.85;;
71767;SDS011;59604;52.138;5.446;2022-09-09T01:52:43;7.07;;;3.28;;
71767;SDS011;59604;52.138;5.446;2022-09-09T01:55:14;8.18;;;3.40;;
71767;SDS011;59604;52.138;5.446;2022-09-09T02:00:39;7.85;;;3.10;;
71767;SDS011;59604;52.138;5.446;2022-09-09T02:03:33;7.95;;;3.20;;
71767;SDS011;59604;52.138;5.446;2022-09-09T02:09:00;6.63;;;3.28;;
71767;SDS011;59604;52.138;5.446;2022-09-09T02:11:30;7.22;;;3.00;;
71767;SDS011;59604;52.138;5.446;2022-09-09T02:13:58;7.32;;;3.17;;
71767;SDS011;59604;52.138;5.446;2022-09-09T02:16:44;9.05;;;3.67;;
71767;SDS011;59604;52.138;5.446;2022-09-09T02:19:21;8.05;;;3.10;;
71767;SDS011;59604;52.138;5.446;2022-09-09T02:21:53;7.43;;;3.22;;
71767;SDS011;59604;52.138;5.446;2022-09-09T02:24:21;6.88;;;3.15;;
71767;SDS011;59604;52.138;5.446;2022-09-09T02:26:49;7.72;;;3.10;;
71767;SDS011;59604;52.138;5.446;2022-09-09T02:29:31;7.43;;;3.28;;
71767;SDS011;59604;52.138;5.446;2022-09-09T02:32:01;7.13;;;3.08;;
71767;SDS011;59604;52.138;5.446;2022-09-09T02:34:33;8.52;;;3.28;;
71767;SDS011;59604;52.138;5.446;2022-09-09T02:37:02;6.45;;;3.42;;
71767;SDS011;59604;52.138;5.446;2022-09-09T02:39:29;7.20;;;3.25;;
71767;SDS011;59604;52.138;5.446;2022-09-09T02:41:56;7.05;;;3.40;;
71767;SDS011;59604;52.138;5.446;2022-09-09T02:44:23;8.50;;;3.45;;
71767;SDS011;59604;52.138;5.446;2022-09-09T02:53:10;7.75;;;3.53;;
71767;SDS011;59604;52.138;5.446;2022-09-09T02:55:29;8.98;;;3.92;;
71767;SDS011;59604;52.138;5.446;2022-09-09T02:58:00;7.32;;;3.20;;
71767;SDS011;59604;52.138;5.446;2022-09-09T03:00:30;7.43;;;3.53;;
71767;SDS011;59604;52.138;5.446;2022-09-09T03:02:57;9.13;;;3.60;;
71767;SDS011;59604;52.138;5.446;2022-09-09T03:05:23;10.80;;;3.80;;
71767;SDS011;59604;52.138;5.446;2022-09-09T03:07:50;7.00;;;3.65;;
71767;SDS011;59604;52.138;5.446;2022-09-09T03:10:17;9.40;;;3.63;;
71767;SDS011;59604;52.138;5.446;2022-09-09T03:12:43;8.55;;;3.70;;
71767;SDS011;59604;52.138;5.446;2022-09-09T03:15:10;8.13;;;3.75;;
71767;SDS011;59604;52.138;5.446;2022-09-09T03:17:37;8.48;;;3.60;;
71767;SDS011;59604;52.138;5.446;2022-09-09T03:20:03;8.73;;;4.05;;
71767;SDS011;59604;52.138;5.446;2022-09-09T03:22:30;8.57;;;3.92;;
71767;SDS011;59604;52.138;5.446;2022-09-09T03:24:56;10.98;;;4.10;;
71767;SDS011;59604;52.138;5.446;2022-09-09T03:27:23;9.88;;;4.35;;
71767;SDS011;59604;52.138;5.446;2022-09-09T03:29:49;9.18;;;3.97;;
71767;SDS011;59604;52.138;5.446;2022-09-09T03:32:18;9.07;;;4.60;;
71767;SDS011;59604;52.138;5.446;2022-09-09T03:34:45;9.52;;;4.38;;
71767;SDS011;59604;52.138;5.446;2022-09-09T03:37:13;8.63;;;4.40;;
71767;SDS011;59604;52.138;5.446;2022-09-09T03:39:39;9.65;;;4.45;;
71767;SDS011;59604;52.138;5.446;2022-09-09T03:42:06;9.50;;;4.30;;
71767;SDS011;59604;52.138;5.446;2022-09-09T03:44:33;12.32;;;4.35;;
71767;SDS011;59604;52.138;5.446;2022-09-09T03:46:59;8.13;;;4.20;;
71767;SDS011;59604;52.138;5.446;2022-09-09T03:49:28;11.23;;;4.50;;
71767;SDS011;59604;52.138;5.446;2022-09-09T03:51:55;8.70;;;4.22;;
71767;SDS011;59604;52.138;5.446;2022-09-09T03:54:23;9.35;;;4.13;;
71767;SDS011;59604;52.138;5.446;2022-09-09T03:56:50;9.88;;;4.35;;
71767;SDS011;59604;52.138;5.446;2022-09-09T03:59:17;8.80;;;4.28;;
71767;SDS011;59604;52.138;5.446;2022-09-09T04:01:43;10.02;;;4.55;;
71767;SDS011;59604;52.138;5.446;2022-09-09T04:04:11;11.30;;;4.38;;
71767;SDS011;59604;52.138;5.446;2022-09-09T04:06:38;8.88;;;4.13;;
71767;SDS011;59604;52.138;5.446;2022-09-09T04:09:05;11.93;;;4.32;;
71767;SDS011;59604;52.138;5.446;2022-09-09T04:11:31;10.45;;;4.20;;
71767;SDS011;59604;52.138;5.446;2022-09-09T04:13:57;9.57;;;4.40;;
71767;SDS011;59604;52.138;5.446;2022-09-09T04:16:24;8.95;;;4.00;;
71767;SDS011;59604;52.138;5.446;2022-09-09T04:18:50;9.50;;;4.28;;
71767;SDS011;59604;52.138;5.446;2022-09-09T04:21:17;8.15;;;4.07;;
71767;SDS011;59604;52.138;5.446;2022-09-09T04:23:43;9.13;;;4.30;;
71767;SDS011;59604;52.138;5.446;2022-09-09T04:26:10;9.13;;;4.15;;
71767;SDS011;59604;52.138;5.446;2022-09-09T04:28:36;7.85;;;3.92;;
71767;SDS011;59604;52.138;5.446;2022-09-09T04:31:07;8.80;;;4.43;;
71767;SDS011;59604;52.138;5.446;2022-09-09T04:33:35;8.88;;;3.88;;
71767;SDS011;59604;52.138;5.446;2022-09-09T04:36:05;8.57;;;4.47;;
71767;SDS011;59604;52.138;5.446;2022-09-09T04:38:32;8.20;;;4.22;;
71767;SDS011;59604;52.138;5.446;2022-09-09T04:40:59;8.98;;;4.13;;
71767;SDS011;59604;52.138;5.446;2022-09-09T04:43:25;9.02;;;4.30;;
71767;SDS011;59604;52.138;5.446;2022-09-09T04:45:52;9.43;;;4.50;;
71767;SDS011;59604;52.138;5.446;2022-09-09T04:48:19;8.45;;;4.15;;
71767;SDS011;59604;52.138;5.446;2022-09-09T04:51:20;9.50;;;4.25;;
71767;SDS011;59604;52.138;5.446;2022-09-09T04:53:40;9.57;;;3.97;;
71767;SDS011;59604;52.138;5.446;2022-09-09T04:58:36;11.38;;;4.00;;
71767;SDS011;59604;52.138;5.446;2022-09-09T05:01:04;9.40;;;3.75;;
71767;SDS011;59604;52.138;5.446;2022-09-09T05:03:50;7.90;;;3.53;;
71767;SDS011;59604;52.138;5.446;2022-09-09T05:06:18;9.82;;;3.80;;
71767;SDS011;59604;52.138;5.446;2022-09-09T05:08:46;9.88;;;3.80;;
71767;SDS011;59604;52.138;5.446;2022-09-09T05:11:21;9.68;;;3.55;;
71767;SDS011;59604;52.138;5.446;2022-09-09T05:13:50;8.15;;;3.13;;
71767;SDS011;59604;52.138;5.446;2022-09-09T05:16:17;8.90;;;3.70;;
71767;SDS011;59604;52.138;5.446;2022-09-09T05:18:45;9.50;;;3.90;;
71767;SDS011;59604;52.138;5.446;2022-09-09T05:21:13;7.22;;;3.53;;
71767;SDS011;59604;52.138;5.446;2022-09-09T05:23:41;8.05;;;3.50;;
71767;SDS011;59604;52.138;5.446;2022-09-09T05:26:09;7.78;;;3.53;;
71767;SDS011;59604;52.138;5.446;2022-09-09T05:28:43;9.80;;;3.58;;
71767;SDS011;59604;52.138;5.446;2022-09-09T05:31:10;7.57;;;3.40;;
71767;SDS011;59604;52.138;5.446;2022-09-09T05:33:39;6.88;;;3.35;;
71767;SDS011;59604;52.138;5.446;2022-09-09T05:36:08;9.48;;;3.58;;
71767;SDS011;59604;52.138;5.446;2022-09-09T05:38:43;12.00;;;3.72;;
71767;SDS011;59604;52.138;5.446;2022-09-09T05:41:10;7.47;;;3.22;;
71767;SDS011;59604;52.138;5.446;2022-09-09T05:43:38;8.35;;;3.80;;
71767;SDS011;59604;52.138;5.446;2022-09-09T05:46:05;9.57;;;2.92;;
71767;SDS011;59604;52.138;5.446;2022-09-09T05:48:37;8.00;;;3.40;;
71767;SDS011;59604;52.138;5.446;2022-09-09T05:51:05;8.68;;;3.28;;
71767;SDS011;59604;52.138;5.446;2022-09-09T05:53:34;10.15;;;3.40;;
71767;SDS011;59604;52.138;5.446;2022-09-09T05:56:04;9.85;;;3.15;;
71767;SDS011;59604;52.138;5.446;2022-09-09T05:58:38;7.82;;;3.00;;
71767;SDS011;59604;52.138;5.446;2022-09-09T06:01:09;11.55;;;3.05;;
71767;SDS011;59604;52.138;5.446;2022-09-09T06:03:38;9.52;;;3.28;;
71767;SDS011;59604;52.138;5.446;2022-09-09T06:06:07;9.50;;;3.22;;
71767;SDS011;59604;52.138;5.446;2022-09-09T06:08:36;8.55;;;3.22;;
71767;SDS011;59604;52.138;5.446;2022-09-09T06:11:23;10.02;;;3.47;;
71767;SDS011;59604;52.138;5.446;2022-09-09T06:13:52;8.70;;;2.95;;
71767;SDS011;59604;52.138;5.446;2022-09-09T06:16:21;6.85;;;3.30;;
71767;SDS011;59604;52.138;5.446;2022-09-09T06:18:50;10.43;;;3.20;;
71767;SDS011;59604;52.138;5.446;2022-09-09T06:21:18;8.82;;;3.40;;
71767;SDS011;59604;52.138;5.446;2022-09-09T06:23:46;9.32;;;3.47;;
71767;SDS011;59604;52.138;5.446;2022-09-09T06:26:14;10.05;;;3.53;;
71767;SDS011;59604;52.138;5.446;2022-09-09T06:28:46;8.82;;;3.17;;
71767;SDS011;59604;52.138;5.446;2022-09-09T06:31:14;7.55;;;3.10;;
71767;SDS011;59604;52.138;5.446;2022-09-09T06:33:54;9.70;;;3.50;;
71767;SDS011;59604;52.138;5.446;2022-09-09T06:36:25;8.88;;;3.10;;
71767;SDS011;59604;52.138;5.446;2022-09-09T06:38:53;8.27;;;3.10;;
71767;SDS011;59604;52.138;5.446;2022-09-09T06:41:20;6.85;;;2.90;;
71767;SDS011;59604;52.138;5.446;2022-09-09T06:43:48;6.00;;;2.70;;
71767;SDS011;59604;52.138;5.446;2022-09-09T06:46:16;12.38;;;3.00;;
71767;SDS011;59604;52.138;5.446;2022-09-09T06:48:45;10.15;;;2.80;;
71767;SDS011;59604;52.138;5.446;2022-09-09T06:51:13;9.32;;;2.78;;
71767;SDS011;59604;52.138;5.446;2022-09-09T06:53:42;9.45;;;2.63;;
71767;SDS011;59604;52.138;5.446;2022-09-09T06:58:43;10.30;;;2.65;;
71767;SDS011;59604;52.138;5.446;2022-09-09T07:01:13;10.13;;;2.85;;
71767;SDS011;59604;52.138;5.446;2022-09-09T07:03:41;10.57;;;2.47;;
71767;SDS011;59604;52.138;5.446;2022-09-09T07:06:09;7.03;;;2.50;;
71767;SDS011;59604;52.138;5.446;2022-09-09T07:08:41;7.50;;;2.60;;
71767;SDS011;59604;52.138;5.446;2022-09-09T07:11:08;7.53;;;2.45;;
71767;SDS011;59604;52.138;5.446;2022-09-09T07:13:37;8.23;;;2.60;;
71767;SDS011;59604;52.138;5.446;2022-09-09T07:16:07;11.40;;;3.05;;
71767;SDS011;59604;52.138;5.446;2022-09-09T07:18:35;7.95;;;2.45;;
71767;SDS011;59604;52.138;5.446;2022-09-09T07:21:02;8.30;;;2.28;;
71767;SDS011;59604;52.138;5.446;2022-09-09T07:23:30;9.63;;;2.22;;
71767;SDS011;59604;52.138;5.446;2022-09-09T07:26:01;9.98;;;2.38;;
71767;SDS011;59604;52.138;5.446;2022-09-09T07:28:28;8.70;;;2.35;;
71767;SDS011;59604;52.138;5.446;2022-09-09T07:31:01;8.20;;;2.47;;
71767;SDS011;59604;52.138;5.446;2022-09-09T07:33:29;10.05;;;2.85;;
71767;SDS011;59604;52.138;5.446;2022-09-09T07:36:04;6.95;;;2.35;;
71767;SDS011;59604;52.138;5.446;2022-09-09T07:38:37;8.48;;;2.28;;
71767;SDS011;59604;52.138;5.446;2022-09-09T07:41:07;9.70;;;2.47;;
71767;SDS011;59604;52.138;5.446;2022-09-09T07:43:38;11.93;;;2.90;;
71767;SDS011;59604;52.138;5.446;2022-09-09T07:46:08;7.13;;;2.42;;
71767;SDS011;59604;52.138;5.446;2022-09-09T07:48:36;9.40;;;2.53;;
71767;SDS011;59604;52.138;5.446;2022-09-09T07:51:07;9.23;;;2.50;;
71767;SDS011;59604;52.138;5.446;2022-09-09T07:53:38;8.95;;;2.53;;
71767;SDS011;59604;52.138;5.446;2022-09-09T07:56:10;9.15;;;2.25;;
71767;SDS011;59604;52.138;5.446;2022-09-09T07:58:39;10.25;;;2.75;;
71767;SDS011;59604;52.138;5.446;2022-09-09T08:01:10;8.30;;;2.30;;
71767;SDS011;59604;52.138;5.446;2022-09-09T08:03:44;6.97;;;2.35;;
71767;SDS011;59604;52.138;5.446;2022-09-09T08:06:12;9.05;;;2.53;;
71767;SDS011;59604;52.138;5.446;2022-09-09T08:08:40;6.75;;;2.35;;
71767;SDS011;59604;52.138;5.446;2022-09-09T08:11:09;10.00;;;2.38;;
71767;SDS011;59604;52.138;5.446;2022-09-09T08:13:38;6.30;;;2.15;;
71767;SDS011;59604;52.138;5.446;2022-09-09T08:16:06;10.30;;;2.40;;
71767;SDS011;59604;52.138;5.446;2022-09-09T08:18:37;11.50;;;2.20;;
71767;SDS011;59604;52.138;5.446;2022-09-09T08:21:09;7.78;;;2.17;;
71767;SDS011;59604;52.138;5.446;2022-09-09T08:23:41;9.65;;;2.30;;
71767;SDS011;59604;52.138;5.446;2022-09-09T08:26:12;9.15;;;2.17;;
71767;SDS011;59604;52.138;5.446;2022-09-09T08:28:41;8.38;;;2.13;;
71767;SDS011;59604;52.138;5.446;2022-09-09T08:31:27;6.38;;;2.30;;
71767;SDS011;59604;52.138;5.446;2022-09-09T08:33:56;7.10;;;2.13;;
71767;SDS011;59604;52.138;5.446;2022-09-09T08:36:26;7.10;;;2.08;;
71767;SDS011;59604;52.138;5.446;2022-09-09T08:38:54;6.32;;;2.60;;
71767;SDS011;59604;52.138;5.446;2022-09-09T08:43:48;7.40;;;2.10;;
71767;SDS011;59604;52.138;5.446;2022-09-09T08:46:26;8.15;;;2.08;;
71767;SDS011;59604;52.138;5.446;2022-09-09T08:49:09;7.18;;;2.10;;
71767;SDS011;59604;52.138;5.446;2022-09-09T08:51:52;7.05;;;2.05;;
71767;SDS011;59604;52.138;5.446;2022-09-09T08:54:22;7.63;;;2.08;;
71767;SDS011;59604;52.138;5.446;2022-09-09T08:57:11;6.35;;;1.92;;
71767;SDS011;59604;52.138;5.446;2022-09-09T08:59:44;8.95;;;2.08;;
71767;SDS011;59604;52.138;5.446;2022-09-09T09:12:57;8.07;;;2.28;;
71767;SDS011;59604;52.138;5.446;2022-09-09T09:15:25;11.20;;;2.40;;
71767;SDS011;59604;52.138;5.446;2022-09-09T09:17:57;10.88;;;2.30;;
71767;SDS011;59604;52.138;5.446;2022-09-09T09:20:29;7.40;;;2.13;;
71767;SDS011;59604;52.138;5.446;2022-09-09T09:23:09;6.93;;;1.83;;
71767;SDS011;59604;52.138;5.446;2022-09-09T09:25:46;8.15;;;2.08;;
71767;SDS011;59604;52.138;5.446;2022-09-09T09:28:17;6.82;;;2.10;;
71767;SDS011;59604;52.138;5.446;2022-09-09T09:30:53;8.13;;;1.98;;
71767;SDS011;59604;52.138;5.446;2022-09-09T09:33:35;5.75;;;2.22;;
71767;SDS011;59604;52.138;5.446;2022-09-09T09:36:12;7.30;;;2.00;;
71767;SDS011;59604;52.138;5.446;2022-09-09T09:42:11;9.35;;;2.13;;
71767;SDS011;59604;52.138;5.446;2022-09-09T09:44:42;6.78;;;2.00;;
71767;SDS011;59604;52.138;5.446;2022-09-09T09:49:56;7.05;;;1.90;;
71767;SDS011;59604;52.138;5.446;2022-09-09T09:52:29;6.45;;;1.80;;
71767;SDS011;59604;52.138;5.446;2022-09-09T09:54:57;7.25;;;1.95;;
71767;SDS011;59604;52.138;5.446;2022-09-09T09:57:32;7.38;;;2.20;;
71767;SDS011;59604;52.138;5.446;2022-09-09T10:00:22;7.88;;;2.30;;
71767;SDS011;59604;52.138;5.446;2022-09-09T10:02:49;7.88;;;2.10;;
71767;SDS011;59604;52.138;5.446;2022-09-09T10:05:21;5.60;;;1.95;;
71767;SDS011;59604;52.138;5.446;2022-09-09T10:08:00;7.75;;;2.00;;
71767;SDS011;59604;52.138;5.446;2022-09-09T10:10:37;9.02;;;2.17;;
71767;SDS011;59604;52.138;5.446;2022-09-09T10:16:32;7.03;;;1.92;;
71767;SDS011;59604;52.138;5.446;2022-09-09T10:19:04;7.95;;;2.13;;
71767;SDS011;59604;52.138;5.446;2022-09-09T10:30:17;7.00;;;1.70;;
71767;SDS011;59604;52.138;5.446;2022-09-09T10:35:48;6.90;;;2.00;;
71767;SDS011;59604;52.138;5.446;2022-09-09T10:38:39;7.57;;;2.00;;
71767;SDS011;59604;52.138;5.446;2022-09-09T11:00:17;6.57;;;2.40;;
71767;SDS011;59604;52.138;5.446;2022-09-09T11:02:51;8.10;;;2.05;;
71767;SDS011;59604;52.138;5.446;2022-09-09T11:05:24;9.27;;;2.60;;
71767;SDS011;59604;52.138;5.446;2022-09-09T11:07:57;6.70;;;2.30;;
71767;SDS011;59604;52.138;5.446;2022-09-09T11:22:02;6.90;;;1.85;;
71767;SDS011;59604;52.138;5.446;2022-09-09T11:38:47;6.22;;;2.40;;
71767;SDS011;59604;52.138;5.446;2022-09-09T11:43:51;7.43;;;1.90;;
71767;SDS011;59604;52.138;5.446;2022-09-09T11:46:32;5.68;;;1.83;;
71767;SDS011;59604;52.138;5.446;2022-09-09T11:49:03;6.05;;;1.98;;
71767;SDS011;59604;52.138;5.446;2022-09-09T11:51:32;6.40;;;2.22;;
71767;SDS011;59604;52.138;5.446;2022-09-09T11:56:55;10.55;;;2.25;;
71767;SDS011;59604;52.138;5.446;2022-09-09T11:59:32;7.97;;;2.30;;
71767;SDS011;59604;52.138;5.446;2022-09-09T12:02:00;6.05;;;2.10;;
71767;SDS011;59604;52.138;5.446;2022-09-09T12:04:37;6.65;;;2.30;;
71767;SDS011;59604;52.138;5.446;2022-09-09T12:12:22;7.78;;;2.53;;
71767;SDS011;59604;52.138;5.446;2022-09-09T12:14:57;8.07;;;2.38;;
71767;SDS011;59604;52.138;5.446;2022-09-09T12:17:29;8.90;;;2.65;;
71767;SDS011;59604;52.138;5.446;2022-09-09T12:20:02;7.90;;;2.33;;
71767;SDS011;59604;52.138;5.446;2022-09-09T12:25:18;6.63;;;2.17;;
71767;SDS011;59604;52.138;5.446;2022-09-09T12:30:36;7.63;;;2.08;;
71767;SDS011;59604;52.138;5.446;2022-09-09T12:33:22;6.15;;;2.55;;
71767;SDS011;59604;52.138;5.446;2022-09-09T12:35:51;6.32;;;2.25;;
71767;SDS011;59604;52.138;5.446;2022-09-09T12:38:34;7.47;;;2.50;;
71767;SDS011;59604;52.138;5.446;2022-09-09T12:41:03;5.00;;;2.38;;
71767;SDS011;59604;52.138;5.446;2022-09-09T12:43:29;8.55;;;2.53;;
71767;SDS011;59604;52.138;5.446;2022-09-09T12:46:00;9.45;;;3.20;;
71767;SDS011;59604;52.138;5.446;2022-09-09T12:48:35;6.03;;;2.22;;
71767;SDS011;59604;52.138;5.446;2022-09-09T12:51:05;6.22;;;2.40;;
71767;SDS011;59604;52.138;5.446;2022-09-09T12:53:42;6.75;;;2.40;;
71767;SDS011;59604;52.138;5.446;2022-09-09T12:56:18;7.18;;;2.58;;
71767;SDS011;59604;52.138;5.446;2022-09-09T12:58:50;9.65;;;2.65;;
71767;SDS011;59604;52.138;5.446;2022-09-09T13:01:22;6.60;;;2.10;;
71767;SDS011;59604;52.138;5.446;2022-09-09T13:03:49;8.35;;;3.00;;
71767;SDS011;59604;52.138;5.446;2022-09-09T13:06:20;9.23;;;2.50;;
71767;SDS011;59604;52.138;5.446;2022-09-09T13:08:54;6.22;;;2.22;;
71767;SDS011;59604;52.138;5.446;2022-09-09T13:11:24;7.00;;;2.17;;
71767;SDS011;59604;52.138;5.446;2022-09-09T13:14:18;6.82;;;2.40;;
71767;SDS011;59604;52.138;5.446;2022-09-09T13:16:55;7.20;;;2.17;;
71767;SDS011;59604;52.138;5.446;2022-09-09T13:19:24;5.60;;;1.92;;
71767;SDS011;59604;52.138;5.446;2022-09-09T13:21:55;5.80;;;1.98;;
71767;SDS011;59604;52.138;5.446;2022-09-09T13:24:31;6.43;;;2.30;;
71767;SDS011;59604;52.138;5.446;2022-09-09T13:27:51;6.35;;;2.22;;
71767;SDS011;59604;52.138;5.446;2022-09-09T13:29:55;6.75;;;2.10;;
71767;SDS011;59604;52.138;5.446;2022-09-09T13:32:23;6.35;;;2.08;;
71767;SDS011;59604;52.138;5.446;2022-09-09T13:34:53;7.20;;;2.50;;
71767;SDS011;59604;52.138;5.446;2022-09-09T13:40:00;5.50;;;2.30;;
71767;SDS011;59604;52.138;5.446;2022-09-09T13:42:29;5.53;;;2.30;;
71767;SDS011;59604;52.138;5.446;2022-09-09T13:44:57;6.70;;;2.25;;
71767;SDS011;59604;52.138;5.446;2022-09-09T13:47:33;6.47;;;2.30;;
71767;SDS011;59604;52.138;5.446;2022-09-09T13:52:54;7.78;;;2.20;;
71767;SDS011;59604;52.138;5.446;2022-09-09T13:55:22;5.55;;;2.13;;
71767;SDS011;59604;52.138;5.446;2022-09-09T13:57:50;6.57;;;2.20;;
71767;SDS011;59604;52.138;5.446;2022-09-09T14:00:40;6.43;;;2.28;;
71767;SDS011;59604;52.138;5.446;2022-09-09T14:03:07;7.10;;;2.40;;
71767;SDS011;59604;52.138;5.446;2022-09-09T14:05:34;7.05;;;2.30;;
71767;SDS011;59604;52.138;5.446;2022-09-09T14:08:00;6.57;;;2.17;;
71767;SDS011;59604;52.138;5.446;2022-09-09T14:10:30;6.45;;;2.45;;
71767;SDS011;59604;52.138;5.446;2022-09-09T14:12:57;7.18;;;2.40;;
71767;SDS011;59604;52.138;5.446;2022-09-09T14:15:23;7.10;;;2.40;;
71767;SDS011;59604;52.138;5.446;2022-09-09T14:17:50;7.28;;;2.40;;
71767;SDS011;59604;52.138;5.446;2022-09-09T14:20:18;6.85;;;2.42;;
71767;SDS011;59604;52.138;5.446;2022-09-09T14:22:45;8.15;;;2.75;;
71767;SDS011;59604;52.138;5.446;2022-09-09T14:25:11;7.55;;;2.53;;
71767;SDS011;59604;52.138;5.446;2022-09-09T14:27:41;8.52;;;2.70;;
71767;SDS011;59604;52.138;5.446;2022-09-09T14:30:08;6.28;;;2.53;;
71767;SDS011;59604;52.138;5.446;2022-09-09T14:32:35;7.32;;;2.53;;
71767;SDS011;59604;52.138;5.446;2022-09-09T14:35:02;6.30;;;2.70;;
71767;SDS011;59604;52.138;5.446;2022-09-09T14:37:28;7.97;;;2.80;;
71767;SDS011;59604;52.138;5.446;2022-09-09T14:39:57;4.68;;;2.17;;
71767;SDS011;59604;52.138;5.446;2022-09-09T14:42:24;6.10;;;2.50;;
71767;SDS011;59604;52.138;5.446;2022-09-09T14:44:50;8.15;;;2.90;;
71767;SDS011;59604;52.138;5.446;2022-09-09T14:47:19;6.47;;;2.47;;
71767;SDS011;59604;52.138;5.446;2022-09-09T14:49:46;6.78;;;2.90;;
71767;SDS011;59604;52.138;5.446;2022-09-09T14:52:15;6.32;;;2.63;;
71767;SDS011;59604;52.138;5.446;2022-09-09T14:54:42;7.88;;;3.13;;
71767;SDS011;59604;52.138;5.446;2022-09-09T14:57:09;7.90;;;2.95;;
71767;SDS011;59604;52.138;5.446;2022-09-09T14:59:35;6.90;;;2.88;;
71767;SDS011;59604;52.138;5.446;2022-09-09T15:02:02;8.20;;;3.15;;
71767;SDS011;59604;52.138;5.446;2022-09-09T15:04:30;6.70;;;2.85;;
71767;SDS011;59604;52.138;5.446;2022-09-09T15:06:57;6.97;;;3.17;;
71767;SDS011;59604;52.138;5.446;2022-09-09T15:09:24;8.75;;;3.25;;
71767;SDS011;59604;52.138;5.446;2022-09-09T15:11:50;7.57;;;3.67;;
71767;SDS011;59604;52.138;5.446;2022-09-09T15:14:17;9.20;;;3.47;;
71767;SDS011;59604;52.138;5.446;2022-09-09T15:16:48;7.18;;;3.33;;
71767;SDS011;59604;52.138;5.446;2022-09-09T15:19:15;8.68;;;3.60;;
71767;SDS011;59604;52.138;5.446;2022-09-09T15:21:42;7.32;;;2.60;;
71767;SDS011;59604;52.138;5.446;2022-09-09T15:24:08;6.50;;;2.60;;
71767;SDS011;59604;52.138;5.446;2022-09-09T15:26:35;6.10;;;2.17;;
71767;SDS011;59604;52.138;5.446;2022-09-09T15:29:04;5.95;;;1.80;;
71767;SDS011;59604;52.138;5.446;2022-09-09T15:31:31;6.10;;;2.13;;
71767;SDS011;59604;52.138;5.446;2022-09-09T15:33:59;6.43;;;2.15;;
71767;SDS011;59604;52.138;5.446;2022-09-09T15:36:28;5.05;;;1.58;;
71767;SDS011;59604;52.138;5.446;2022-09-09T15:38:58;4.43;;;1.50;;
71767;SDS011;59604;52.138;5.446;2022-09-09T15:41:26;4.88;;;1.67;;
71767;SDS011;59604;52.138;5.446;2022-09-09T15:43:54;4.38;;;1.63;;
71767;SDS011;59604;52.138;5.446;2022-09-09T15:46:30;4.93;;;1.88;;
71767;SDS011;59604;52.138;5.446;2022-09-09T15:49:08;4.80;;;1.83;;
71767;SDS011;59604;52.138;5.446;2022-09-09T15:51:40;5.35;;;1.67;;
71767;SDS011;59604;52.138;5.446;2022-09-09T15:54:15;6.05;;;1.85;;
71767;SDS011;59604;52.138;5.446;2022-09-09T15:56:47;6.30;;;1.83;;
71767;SDS011;59604;52.138;5.446;2022-09-09T15:59:16;4.03;;;1.80;;
71767;SDS011;59604;52.138;5.446;2022-09-09T16:01:42;6.28;;;1.95;;
71767;SDS011;59604;52.138;5.446;2022-09-09T16:04:10;5.75;;;1.80;;
71767;SDS011;59604;52.138;5.446;2022-09-09T16:06:37;4.88;;;1.77;;
71767;SDS011;59604;52.138;5.446;2022-09-09T16:09:04;8.70;;;2.63;;
71767;SDS011;59604;52.138;5.446;2022-09-09T16:11:34;5.57;;;1.80;;
71767;SDS011;59604;52.138;5.446;2022-09-09T16:14:03;4.85;;;2.20;;
71767;SDS011;59604;52.138;5.446;2022-09-09T16:16:30;4.55;;;1.98;;
71767;SDS011;59604;52.138;5.446;2022-09-09T16:18:57;3.90;;;1.90;;
71767;SDS011;59604;52.138;5.446;2022-09-09T16:21:27;3.63;;;1.52;;
71767;SDS011;59604;52.138;5.446;2022-09-09T16:23:55;5.22;;;1.70;;
71767;SDS011;59604;52.138;5.446;2022-09-09T16:26:26;4.95;;;1.60;;
71767;SDS011;59604;52.138;5.446;2022-09-09T16:28:53;4.60;;;1.55;;
71767;SDS011;59604;52.138;5.446;2022-09-09T16:31:25;6.05;;;1.50;;
71767;SDS011;59604;52.138;5.446;2022-09-09T16:33:53;4.22;;;1.40;;
71767;SDS011;59604;52.138;5.446;2022-09-09T16:36:20;3.95;;;1.55;;
71767;SDS011;59604;52.138;5.446;2022-09-09T16:38:55;4.25;;;1.75;;
71767;SDS011;59604;52.138;5.446;2022-09-09T16:41:27;6.55;;;1.80;;
71767;SDS011;59604;52.138;5.446;2022-09-09T16:43:55;4.28;;;1.73;;
71767;SDS011;59604;52.138;5.446;2022-09-09T16:46:28;7.07;;;2.08;;
71767;SDS011;59604;52.138;5.446;2022-09-09T16:48:57;5.53;;;1.75;;
71767;SDS011;59604;52.138;5.446;2022-09-09T16:51:26;4.95;;;1.67;;
71767;SDS011;59604;52.138;5.446;2022-09-09T16:53:54;6.03;;;2.00;;
71767;SDS011;59604;52.138;5.446;2022-09-09T16:56:24;4.95;;;1.98;;
71767;SDS011;59604;52.138;5.446;2022-09-09T16:58:52;6.15;;;1.98;;
71767;SDS011;59604;52.138;5.446;2022-09-09T17:01:27;4.65;;;1.80;;
71767;SDS011;59604;52.138;5.446;2022-09-09T17:03:55;4.78;;;1.77;;
71767;SDS011;59604;52.138;5.446;2022-09-09T17:06:27;6.10;;;2.10;;
71767;SDS011;59604;52.138;5.446;2022-09-09T17:08:59;5.35;;;2.05;;
71767;SDS011;59604;52.138;5.446;2022-09-09T17:11:28;6.93;;;2.00;;
71767;SDS011;59604;52.138;5.446;2022-09-09T17:13:55;6.45;;;1.90;;
71767;SDS011;59604;52.138;5.446;2022-09-09T17:16:25;5.00;;;2.10;;
71767;SDS011;59604;52.138;5.446;2022-09-09T17:18:53;6.53;;;2.20;;
71767;SDS011;59604;52.138;5.446;2022-09-09T17:21:22;5.13;;;2.03;;
71767;SDS011;59604;52.138;5.446;2022-09-09T17:23:51;5.65;;;2.25;;
71767;SDS011;59604;52.138;5.446;2022-09-09T17:26:19;4.85;;;2.08;;
71767;SDS011;59604;52.138;5.446;2022-09-09T17:28:47;7.13;;;2.33;;
71767;SDS011;59604;52.138;5.446;2022-09-09T17:31:15;6.65;;;2.30;;
71767;SDS011;59604;52.138;5.446;2022-09-09T17:33:44;6.40;;;2.80;;
71767;SDS011;59604;52.138;5.446;2022-09-09T17:36:17;7.15;;;2.97;;